ينبع, السعودية

05:20 AM AST on أمتèبر 02, 2014 (GMT +0300)
Yenbo | Change Station
CLOSE
Current Station
Airport
Location: Yenbo,
Elevation: 26 ft
Nearby Weather Stations

Elev 26 ft 24.14 °N, 38.06 °E | Updated 20 minutes ago

Clear
صافية
77 °F
Feels Like 77 °F
N
4
ريح متغير ريح from شمال

هذا اليوم
High -- | Low -- °F
--% Chance of Precip.
Yesterday
High -- | Low -- °F
Precip. -- في
6:19 AM 6:14 PM
الربع الاول, 53% visible
الضغط 29.71 في
وضوح الرؤية -9999.0 أميال
سحابات
نقطة الندى 59 °F
الرطوبة 54%
Rainfall 0.00 في
عمق الثلج Not available.
الأشعة فوق البنفسجية Not available.
Pollen Not available.
جودة الهواء Not available.
Flu Activity Not available.
METAR OEYN 020200Z 01003KT CAVOK 25/15 Q1006 NOSIG

More Conditions Fewer Conditions

الضغط 29.71 في
وضوح الرؤية -9999.0 أميال
سحابات
نقطة الندى 59 °F
الرطوبة 54%
Rainfall 0.00 في
عمق الثلج Not available.
الأشعة فوق البنفسجية Not available.
Pollen Not available.
جودة الهواء Not available.
Flu Activity Not available.
METAR OEYN 020200Z 01003KT CAVOK 25/15 Q1006 NOSIG

More Conditions Fewer Conditions

10-Day Weather Forecast

Almanac

علم الفلك

Oct. 02, 2014 Rise Set
Actual Time 6:19 AM AST 6:14 PM AST
Civil Twilight 5:57 AM AST 6:36 PM AST
Nautical Twilight 5:30 AM AST 7:03 PM AST
Astronomical Twilight 5:04 AM AST 7:29 PM AST
قمر 1:28 PM AST لايوجد غروب للقمر
Length Of Visible Light 12h 39m
طول الیوم
11h 54m
Tomorrow will be 1m 24s shorter.
الربع الاول, 53% of the Moon is Illuminated
Oct 1
الربع الاول
Oct 8
بدر
Oct 15
الربع الآخر
Oct 23
New
Oct 30
الربع الاول

Yesterday's Extremes

Country Highs Country Lows

Community

WunderPhotos

Upload Photos

1,758,142 photos uploaded!

WunderBlogs® & News

Nearby

جودة الهواء

Not available.

عمق الثلج

Not available.

Earthquake Activity

City Distance Mag. Time & Date
No recent earthquake activity has been reported nearby.
Minimum magnitude displayed is 2.5.

Coastal Water Temperatures

مكان درجات الحرارة
No Stations Reporting

Nearby Weather Stations